Time;durP1;ratioP1;P1;durP2;ratioP2;P2;SDS_P1;SDS_P2;PMS_P1;PMS_P2;Temp;Humidity;BMP_temperature;BMP_pressure;BME280_temperature;BME280_humidity;BME280_pressure;Samples;Min_cycle;Max_cycle;Signal;HPM_P1;HPM_P2
2021/06/04 00:02:12;;;;;;;;;;;;;;;;;;5068352;28;19973;-68
2021/06/04 00:04:38;;;;;;;;;;;;;;;;;;5068296;28;20372;-68
2021/06/04 00:07:05;;;;;;;;;;;;;;;;;;5071200;28;19951;-69
2021/06/04 00:09:31;;;;;;;;;;;;;;;;;;5069858;28;19932;-68
2021/06/04 00:11:58;;;;;;;;;;;;;;;;;;5067819;28;19932;-68
2021/06/04 00:14:24;;;;;;;;;;;;;;;;;;5070327;28;19943;-68
2021/06/04 00:16:51;;;;;;;;;;;;;;;;;;5071636;28;20005;-67
2021/06/04 00:19:17;;;;;;;;;;;;;;;;;;5070537;28;19925;-69
2021/06/04 00:21:44;;;;;;;;;;;;;;;;;;5065069;28;19948;-68
2021/06/04 00:24:10;;;;;;;;;;;;;;;;;;5071286;28;19930;-68
2021/06/04 00:26:37;;;;;;;;;;;;;;;;;;5072331;28;20292;-67
2021/06/04 00:29:03;;;;;;;;;;;;;;;;;;5075390;28;19925;-67
2021/06/04 00:31:30;;;;;;;;;;;;;;;;;;5061145;28;20292;-68
2021/06/04 00:33:56;;;;;;;;;;;;;;;;;;5069872;28;19925;-68
2021/06/04 00:36:24;;;;;;;;;;;;;;;;;;5069268;28;19935;-68
2021/06/04 00:38:50;;;;;;;;;;;;;;;;;;5074746;28;19935;-68
2021/06/04 00:41:17;;;;;;;;;;;;;;;;;;5074394;28;19925;-68
2021/06/04 00:43:43;;;;;;;;;;;;;;;;;;5071961;28;19948;-68
2021/06/04 00:46:10;;;;;;;;;;;;;;;;;;5063884;28;19933;-68
2021/06/04 00:48:36;;;;;;;;;;;;;;;;;;5072829;28;19924;-68
2021/06/04 00:51:03;;;;;;;;;;;;;;;;;;5070288;28;19929;-68
2021/06/04 00:53:29;;;;;;;;;;;;;;;;;;5071202;28;19947;-71
2021/06/04 00:55:56;;;;;;;;;;;;;;;;;;5069392;28;19924;-68
2021/06/04 00:58:22;;;;;;;;;;;;;;;;;;5067658;28;19935;-68
2021/06/04 01:00:50;;;;;;;;;;;;;;;;;;5070390;28;20467;-68
2021/06/04 01:03:16;;;;;;;;;;;;;;;;;;5069471;28;19960;-68
2021/06/04 01:05:43;;;;;;;;;;;;;;;;;;5068800;28;19925;-68
2021/06/04 01:08:09;;;;;;;;;;;;;;;;;;5071197;28;19931;-68
2021/06/04 01:10:36;;;;;;;;;;;;;;;;;;5071230;28;19925;-67
2021/06/04 01:13:02;;;;;;;;;;;;;;;;;;5073328;28;19928;-68
2021/06/04 01:15:29;;;;;;;;;;;;;;;;;;5068431;28;19931;-68
2021/06/04 01:17:55;;;;;;;;;;;;;;;;;;5067455;28;19928;-68
2021/06/04 01:20:22;;;;;;;;;;;;;;;;;;5065805;28;19929;-67
2021/06/04 01:22:49;;;;;;;;;;;;;;;;;;5067921;28;19932;-68
2021/06/04 01:25:15;;;;;;;;;;;;;;;;;;5065820;28;19925;-68
2021/06/04 01:27:41;;;;;;;;;;;;;;;;;;5070684;28;19929;-68
2021/06/04 01:30:08;;;;;;;;;;;;;;;;;;5065492;28;19924;-67
2021/06/04 01:32:34;;;;;;;;;;;;;;;;;;5072989;28;19939;-67
2021/06/04 01:35:01;;;;;;;;;;;;;;;;;;5065621;28;19924;-66
2021/06/04 01:37:27;;;;;;;;;;;;;;;;;;5060323;28;19932;-68
2021/06/04 01:39:54;;;;;;;;;;;;;;;;;;5068853;28;19932;-68
2021/06/04 01:42:20;;;;;;;;;;;;;;;;;;5069113;28;19931;-68
2021/06/04 01:44:47;;;;;;;;;;;;;;;;;;5070286;28;19924;-67
2021/06/04 01:47:13;;;;;;;;;;;;;;;;;;5070431;28;19928;-66
2021/06/04 01:49:39;;;;;;;;;;;;;;;;;;5066946;28;20392;-68
2021/06/04 01:52:07;;;;;;;;;;;;;;;;;;5068724;28;20334;-66
2021/06/04 01:54:33;;;;;;;;;;;;;;;;;;5067858;28;19924;-67
2021/06/04 01:57:00;;;;;;;;;;;;;;;;;;5069090;28;19946;-68
2021/06/04 01:59:26;;;;;;;;;;;;;;;;;;5068032;28;20369;-66
2021/06/04 02:01:53;;;;;;;;;;;;;;;;;;5067748;28;19937;-67
2021/06/04 02:04:19;;;;;;;;;;;;;;;;;;5066672;28;19925;-67
2021/06/04 02:06:46;;;;;;;;;;;;;;;;;;5067316;28;19925;-67
2021/06/04 02:09:12;;;;;;;;;;;;;;;;;;5069126;28;19929;-68
2021/06/04 02:11:39;;;;;;;;;;;;;;;;;;5070652;28;19924;-66
2021/06/04 02:14:05;;;;;;;;;;;;;;;;;;5075089;28;19925;-67
2021/06/04 02:16:32;;;;;;;;;;;;;;;;;;5076204;28;19924;-66
2021/06/04 02:18:58;;;;;;;;;;;;;;;;;;5076271;28;19928;-66
2021/06/04 02:21:25;;;;;;;;;;;;;;;;;;5077222;28;19924;-67
2021/06/04 02:23:51;;;;;;;;;;;;;;;;;;5074045;28;20289;-67
2021/06/04 02:26:17;;;;;;;;;;;;;;;;;;5074232;28;19924;-67
2021/06/04 02:28:44;;;;;;;;;;;;;;;;;;5075506;28;19978;-67
2021/06/04 02:31:10;;;;;;;;;;;;;;;;;;5076015;28;19925;-67
2021/06/04 02:33:37;;;;;;;;;;;;;;;;;;5072562;28;20396;-67
2021/06/04 02:36:03;;;;;;;;;;;;;;;;;;5073115;28;20037;-67
2021/06/04 02:38:30;;;;;;;;;;;;;;;;;;5076669;28;19928;-67
2021/06/04 02:40:56;;;;;;;;;;;;;;;;;;5073447;28;19924;-67
2021/06/04 02:43:23;;;;;;;;;;;;;;;;;;5077457;28;19931;-67
2021/06/04 02:45:49;;;;;;;;;;;;;;;;;;5072793;28;19966;-67
2021/06/04 02:48:15;;;;;;;;;;;;;;;;;;5072581;28;19925;-68
2021/06/04 02:50:42;;;;;;;;;;;;;;;;;;5074405;28;20323;-68
2021/06/04 02:53:08;;;;;;;;;;;;;;;;;;5065956;28;19931;-68
2021/06/04 02:55:35;;;;;;;;;;;;;;;;;;5074432;28;19977;-68
2021/06/04 02:58:01;;;;;;;;;;;;;;;;;;5074425;28;19925;-69
2021/06/04 03:00:28;;;;;;;;;;;;;;;;;;5074568;28;19924;-67
2021/06/04 03:05:23;;;;;;;;;;;;;;;;;;5061953;28;19957;-67
2021/06/04 03:07:49;;;;;;;;;;;;;;;;;;5067710;28;19932;-67
2021/06/04 03:10:16;;;;;;;;;;;;;;;;;;5057247;28;20455;-67
2021/06/04 03:12:42;;;;;;;;;;;;;;;;;;5068902;28;19928;-67
2021/06/04 03:15:08;;;;;;;;;;;;;;;;;;5063742;28;19925;-67
2021/06/04 03:17:35;;;;;;;;;;;;;;;;;;5057971;28;19925;-67
2021/06/04 03:20:01;;;;;;;;;;;;;;;;;;5062575;28;19925;-67
2021/06/04 03:22:28;;;;;;;;;;;;;;;;;;5070120;28;19929;-67
2021/06/04 03:24:54;;;;;;;;;;;;;;;;;;5062887;28;19925;-67
2021/06/04 03:27:21;;;;;;;;;;;;;;;;;;5063708;28;19924;-67
2021/06/04 03:29:47;;;;;;;;;;;;;;;;;;5069620;28;19962;-67
2021/06/04 03:32:13;;;;;;;;;;;;;;;;;;5060917;28;20322;-67
2021/06/04 03:34:40;;;;;;;;;;;;;;;;;;5064785;28;19924;-68
2021/06/04 03:37:06;;;;;;;;;;;;;;;;;;5063318;28;20442;-67
2021/06/04 03:39:33;;;;;;;;;;;;;;;;;;5065497;28;19929;-67
2021/06/04 03:41:59;;;;;;;;;;;;;;;;;;5060125;28;19925;-67
2021/06/04 03:44:26;;;;;;;;;;;;;;;;;;5058292;28;19932;-67
2021/06/04 03:46:52;;;;;;;;;;;;;;;;;;5062934;28;19936;-68
2021/06/04 03:49:18;;;;;;;;;;;;;;;;;;5065190;28;20018;-67
2021/06/04 03:51:45;;;;;;;;;;;;;;;;;;5066329;28;20011;-68
2021/06/04 03:54:11;;;;;;;;;;;;;;;;;;5063037;28;20300;-68
2021/06/04 03:56:38;;;;;;;;;;;;;;;;;;5070683;28;19929;-68
2021/06/04 03:59:04;;;;;;;;;;;;;;;;;;5067220;28;20020;-69
2021/06/04 04:01:31;;;;;;;;;;;;;;;;;;5065748;28;19924;-68
2021/06/04 04:03:58;;;;;;;;;;;;;;;;;;5065356;28;19932;-70
2021/06/04 04:06:24;;;;;;;;;;;;;;;;;;5056624;28;19970;-67
2021/06/04 04:08:50;;;;;;;;;;;;;;;;;;5061343;28;20023;-68
2021/06/04 04:11:17;;;;;;;;;;;;;;;;;;5073678;28;19928;-68
2021/06/04 04:13:43;;;;;;;;;;;;;;;;;;5062559;28;20028;-67
2021/06/04 04:16:10;;;;;;;;;;;;;;;;;;5060972;28;19933;-68
2021/06/04 04:18:38;;;;;;;;;;;;;;;;;;5059239;28;19951;-67
2021/06/04 04:21:05;;;;;;;;;;;;;;;;;;5066799;28;19925;-67
2021/06/04 04:23:31;;;;;;;;;;;;;;;;;;5059021;28;19925;-68
2021/06/04 04:25:58;;;;;;;;;;;;;;;;;;5061850;28;19981;-67
2021/06/04 04:28:24;;;;;;;;;;;;;;;;;;5064219;28;19932;-67
2021/06/04 04:30:51;;;;;;;;;;;;;;;;;;5063690;28;19943;-68
2021/06/04 04:33:17;;;;;;;;;;;;;;;;;;5068041;28;19977;-67
2021/06/04 04:35:43;;;;;;;;;;;;;;;;;;5062499;28;19930;-68
2021/06/04 04:38:10;;;;;;;;;;;;;;;;;;5059168;28;19933;-67
2021/06/04 04:40:36;;;;;;;;;;;;;;;;;;5058618;28;19925;-67
2021/06/04 04:43:03;;;;;;;;;;;;;;;;;;5064722;28;20389;-67
2021/06/04 04:45:29;;;;;;;;;;;;;;;;;;5063752;28;19971;-67
2021/06/04 04:47:56;;;;;;;;;;;;;;;;;;5061811;28;19970;-68
2021/06/04 04:50:22;;;;;;;;;;;;;;;;;;5063689;28;19924;-67
2021/06/04 04:52:48;;;;;;;;;;;;;;;;;;5068626;28;20304;-67
2021/06/04 04:55:15;;;;;;;;;;;;;;;;;;5062878;28;20387;-67
2021/06/04 04:57:41;;;;;;;;;;;;;;;;;;5060536;28;19953;-67
2021/06/04 05:00:08;;;;;;;;;;;;;;;;;;5063764;28;19935;-67
2021/06/04 05:02:34;;;;;;;;;;;;;;;;;;5060856;28;19925;-67
2021/06/04 05:05:01;;;;;;;;;;;;;;;;;;5060937;28;20221;-68
2021/06/04 05:07:27;;;;;;;;;;;;;;;;;;5061632;28;19981;-68
2021/06/04 05:09:55;;;;;;;;;;;;;;;;;;5061493;28;19931;-68
2021/06/04 05:12:21;;;;;;;;;;;;;;;;;;5060504;28;19924;-68
2021/06/04 05:14:48;;;;;;;;;;;;;;;;;;5063508;28;19933;-68
2021/06/04 05:17:14;;;;;;;;;;;;;;;;;;5057576;28;19953;-68
2021/06/04 05:19:43;;;;;;;;;;;;;;;;;;5062370;28;19924;-68
2021/06/04 05:22:09;;;;;;;;;;;;;;;;;;5069146;28;19932;-67
2021/06/04 05:24:36;;;;;;;;;;;;;;;;;;5062229;28;19925;-67
2021/06/04 05:27:02;;;;;;;;;;;;;;;;;;5053574;28;20011;-67
2021/06/04 05:29:29;;;;;;;;;;;;;;;;;;5063996;28;20016;-67
2021/06/04 05:31:55;;;;;;;;;;;;;;;;;;5060073;28;21150;-68
2021/06/04 05:34:21;;;;;;;;;;;;;;;;;;5055112;28;19924;-67
2021/06/04 05:36:48;;;;;;;;;;;;;;;;;;5053802;28;20426;-67
2021/06/04 05:39:14;;;;;;;;;;;;;;;;;;5060114;28;19925;-67
2021/06/04 05:41:41;;;;;;;;;;;;;;;;;;5059862;28;19994;-67
2021/06/04 05:44:08;;;;;;;;;;;;;;;;;;5062045;28;19982;-67
2021/06/04 05:46:35;;;;;;;;;;;;;;;;;;5065624;28;19924;-67
2021/06/04 05:49:01;;;;;;;;;;;;;;;;;;5066061;28;19977;-67
2021/06/04 05:51:28;;;;;;;;;;;;;;;;;;5066936;28;20274;-67
2021/06/04 05:53:54;;;;;;;;;;;;;;;;;;5061134;28;19924;-66
2021/06/04 05:56:21;;;;;;;;;;;;;;;;;;5067912;28;19925;-67
2021/06/04 05:58:47;;;;;;;;;;;;;;;;;;5063059;28;19928;-67
2021/06/04 06:01:14;;;;;;;;;;;;;;;;;;5065326;28;19932;-66
2021/06/04 06:03:40;;;;;;;;;;;;;;;;;;5061102;28;19931;-66
2021/06/04 06:06:07;;;;;;;;;;;;;;;;;;5065225;28;20008;-66
2021/06/04 06:08:33;;;;;;;;;;;;;;;;;;5062697;28;19925;-66
2021/06/04 06:11:00;;;;;;;;;;;;;;;;;;5067134;28;19925;-66
2021/06/04 06:13:26;;;;;;;;;;;;;;;;;;5059460;28;19979;-66
2021/06/04 06:15:53;;;;;;;;;;;;;;;;;;5065503;28;19967;-66
2021/06/04 06:18:19;;;;;;;;;;;;;;;;;;5064407;28;20011;-67
2021/06/04 06:20:46;;;;;;;;;;;;;;;;;;5061560;28;19925;-67
2021/06/04 06:23:12;;;;;;;;;;;;;;;;;;5060697;28;20400;-67
2021/06/04 06:25:39;;;;;;;;;;;;;;;;;;5060859;28;19925;-67
2021/06/04 06:28:05;;;;;;;;;;;;;;;;;;5060001;28;19929;-65
2021/06/04 06:30:32;;;;;;;;;;;;;;;;;;5061820;28;20764;-65
2021/06/04 06:32:58;;;;;;;;;;;;;;;;;;5058965;28;20459;-65
2021/06/04 06:35:25;;;;;;;;;;;;;;;;;;5062191;28;20053;-65
2021/06/04 06:37:51;;;;;;;;;;;;;;;;;;5061624;28;19924;-65
2021/06/04 06:40:18;;;;;;;;;;;;;;;;;;5058348;28;20027;-65
2021/06/04 06:42:44;;;;;;;;;;;;;;;;;;5065679;28;20409;-68
2021/06/04 06:45:10;;;;;;;;;;;;;;;;;;5066601;28;20319;-65
2021/06/04 06:47:37;;;;;;;;;;;;;;;;;;5060155;28;20015;-68
2021/06/04 06:50:03;;;;;;;;;;;;;;;;;;5062774;28;19928;-65
2021/06/04 06:52:30;;;;;;;;;;;;;;;;;;5063184;28;20376;-65
2021/06/04 06:54:57;;;;;;;;;;;;;;;;;;5058000;28;19925;-66
2021/06/04 06:57:23;;;;;;;;;;;;;;;;;;5066067;28;19925;-63
2021/06/04 06:59:49;;;;;;;;;;;;;;;;;;5066758;28;20121;-65
2021/06/04 07:02:18;;;;;;;;;;;;;;;;;;5065714;28;19936;-62
2021/06/04 07:04:44;;;;;;;;;;;;;;;;;;5065239;28;20007;-64
2021/06/04 07:07:11;;;;;;;;;;;;;;;;;;5061964;28;19969;-63
2021/06/04 07:09:38;;;;;;;;;;;;;;;;;;5064899;28;19988;-62
2021/06/04 07:12:04;;;;;;;;;;;;;;;;;;5066557;28;20356;-64
2021/06/04 07:14:31;;;;;;;;;;;;;;;;;;5065646;28;20071;-62
2021/06/04 07:16:57;;;;;;;;;;;;;;;;;;5060372;28;19982;-64
2021/06/04 07:19:24;;;;;;;;;;;;;;;;;;5065867;28;19933;-62
2021/06/04 07:21:50;;;;;;;;;;;;;;;;;;5067433;28;20011;-62
2021/06/04 07:24:18;;;;;;;;;;;;;;;;;;5066622;28;19943;-64
2021/06/04 07:26:44;;;;;;;;;;;;;;;;;;5064799;28;20493;-63
2021/06/04 07:29:11;;;;;;;;;;;;;;;;;;5068680;28;19982;-63
2021/06/04 07:31:37;;;;;;;;;;;;;;;;;;5066895;28;20175;-65
2021/06/04 07:34:05;;;;;;;;;;;;;;;;;;5064598;28;20426;-65
2021/06/04 07:36:32;;;;;;;;;;;;;;;;;;5066643;28;19925;-64
2021/06/04 07:38:58;;;;;;;;;;;;;;;;;;5065598;28;20024;-64
2021/06/04 07:41:25;;;;;;;;;;;;;;;;;;5064989;28;19924;-62
2021/06/04 07:43:51;;;;;;;;;;;;;;;;;;5065977;28;19925;-65
2021/06/04 07:46:18;;;;;;;;;;;;;;;;;;5065927;28;19928;-62
2021/06/04 07:48:44;;;;;;;;;;;;;;;;;;5066604;28;20351;-65
2021/06/04 07:51:11;;;;;;;;;;;;;;;;;;5064709;28;19928;-63
2021/06/04 07:53:39;;;;;;;;;;;;;;;;;;5068077;28;19928;-62
2021/06/04 07:56:05;;;;;;;;;;;;;;;;;;5064391;28;19932;-63
2021/06/04 07:58:32;;;;;;;;;;;;;;;;;;5064910;28;19979;-63
2021/06/04 08:00:59;;;;;;;;;;;;;;;;;;5065136;28;20415;-63
2021/06/04 08:03:26;;;;;;;;;;;;;;;;;;5064594;28;19943;-64
2021/06/04 08:05:52;;;;;;;;;;;;;;;;;;5064917;28;20015;-64
2021/06/04 08:08:19;;;;;;;;;;;;;;;;;;5065334;28;19931;-64
2021/06/04 08:10:46;;;;;;;;;;;;;;;;;;5065175;28;20385;-63
2021/06/04 08:13:14;;;;;;;;;;;;;;;;;;5066263;28;19924;-63
2021/06/04 08:15:41;;;;;;;;;;;;;;;;;;5063861;28;19931;-63
2021/06/04 08:18:07;;;;;;;;;;;;;;;;;;5068162;28;20388;-63
2021/06/04 08:20:34;;;;;;;;;;;;;;;;;;5064247;28;19975;-64
2021/06/04 08:23:00;;;;;;;;;;;;;;;;;;5065529;28;19925;-64
2021/06/04 08:25:27;;;;;;;;;;;;;;;;;;5067579;28;20454;-64
2021/06/04 08:27:53;;;;;;;;;;;;;;;;;;5064344;28;19929;-63
2021/06/04 08:30:20;;;;;;;;;;;;;;;;;;5069487;28;19947;-63
2021/06/04 08:32:46;;;;;;;;;;;;;;;;;;5066656;28;20401;-65
2021/06/04 08:35:12;;;;;;;;;;;;;;;;;;5064964;28;20330;-65
2021/06/04 08:37:39;;;;;;;;;;;;;;;;;;5063768;28;20319;-65
2021/06/04 08:40:06;;;;;;;;;;;;;;;;;;5064831;28;19925;-66
2021/06/04 08:42:33;;;;;;;;;;;;;;;;;;5065514;28;20015;-66
2021/06/04 08:44:59;;;;;;;;;;;;;;;;;;5063651;28;19943;-66
2021/06/04 08:47:26;;;;;;;;;;;;;;;;;;5066518;28;20288;-66
2021/06/04 08:49:52;;;;;;;;;;;;;;;;;;5063514;28;20277;-67
2021/06/04 08:52:19;;;;;;;;;;;;;;;;;;5066809;28;19924;-66
2021/06/04 08:54:45;;;;;;;;;;;;;;;;;;5066645;28;20022;-66
2021/06/04 08:57:12;;;;;;;;;;;;;;;;;;5065608;28;19925;-66
2021/06/04 08:59:38;;;;;;;;;;;;;;;;;;5063301;28;19950;-66
2021/06/04 09:02:05;;;;;;;;;;;;;;;;;;5063742;28;20003;-65
2021/06/04 09:04:31;;;;;;;;;;;;;;;;;;5079468;22;19924;-62
2021/06/04 09:06:58;;;;;;;;;;;;;;;;;;5068684;28;19924;-65
2021/06/04 09:09:25;;;;;;;;;;;;;;;;;;5063921;28;19928;-65
2021/06/04 09:11:51;;;;;;;;;;;;;;;;;;5064922;28;19971;-65
2021/06/04 09:14:18;;;;;;;;;;;;;;;;;;5063810;28;19928;-65
2021/06/04 09:16:44;;;;;;;;;;;;;;;;;;5064447;28;19932;-65
2021/06/04 09:19:11;;;;;;;;;;;;;;;;;;5062625;28;19931;-65
2021/06/04 09:21:38;;;;;;;;;;;;;;;;;;5062281;28;19932;-65
2021/06/04 09:24:07;;;;;;;;;;;;;;;;;;5061342;28;19935;-66
2021/06/04 09:26:36;;;;;;;;;;;;;;;;;;5062834;28;19925;-65
2021/06/04 09:29:03;;;;;;;;;;;;;;;;;;5061628;28;19929;-65
2021/06/04 09:31:31;;;;;;;;;;;;;;;;;;5061335;28;19932;-65
2021/06/04 09:33:57;;;;;;;;;;;;;;;;;;5064212;28;19984;-65
2021/06/04 09:36:25;;;;;;;;;;;;;;;;;;5062961;28;19925;-65
2021/06/04 09:38:53;;;;;;;;;;;;;;;;;;5061327;28;19924;-65
2021/06/04 09:41:19;;;;;;;;;;;;;;;;;;5062606;28;19925;-64
2021/06/04 09:43:46;;;;;;;;;;;;;;;;;;5062663;28;19925;-64
2021/06/04 09:46:13;;;;;;;;;;;;;;;;;;5064987;28;19924;-65
2021/06/04 09:48:40;;;;;;;;;;;;;;;;;;5061864;28;20416;-64
2021/06/04 09:51:06;;;;;;;;;;;;;;;;;;5060980;28;19956;-65
2021/06/04 09:53:33;;;;;;;;;;;;;;;;;;5058375;28;20342;-64
2021/06/04 09:55:59;;;;;;;;;;;;;;;;;;5054787;28;19925;-64
2021/06/04 09:58:28;;;;;;;;;;;;;;;;;;5060238;28;19931;-63
2021/06/04 10:00:56;;;;;;;;;;;;;;;;;;5062017;28;20185;-65
2021/06/04 10:03:23;;;;;;;;;;;;;;;;;;5059579;28;19929;-64
2021/06/04 10:05:52;;;;;;;;;;;;;;;;;;5063905;28;19930;-64
2021/06/04 10:08:18;;;;;;;;;;;;;;;;;;5059767;28;19925;-65
2021/06/04 10:10:45;;;;;;;;;;;;;;;;;;5061120;28;20015;-64
2021/06/04 10:13:11;;;;;;;;;;;;;;;;;;5062354;28;20455;-64
2021/06/04 10:15:38;;;;;;;;;;;;;;;;;;5059944;28;19939;-64
2021/06/04 10:18:04;;;;;;;;;;;;;;;;;;5062357;28;19998;-64
2021/06/04 10:20:31;;;;;;;;;;;;;;;;;;5063704;28;19924;-64
2021/06/04 10:22:58;;;;;;;;;;;;;;;;;;5058306;28;19931;-64
2021/06/04 10:25:24;;;;;;;;;;;;;;;;;;5061002;28;19989;-64
2021/06/04 10:27:51;;;;;;;;;;;;;;;;;;5063839;28;19925;-64
2021/06/04 10:30:17;;;;;;;;;;;;;;;;;;5060561;28;19925;-64
2021/06/04 10:32:44;;;;;;;;;;;;;;;;;;5061170;28;19931;-64
2021/06/04 10:35:11;;;;;;;;;;;;;;;;;;5063963;28;19931;-64
2021/06/04 10:37:39;;;;;;;;;;;;;;;;;;5065735;28;20285;-64
2021/06/04 10:40:05;;;;;;;;;;;;;;;;;;5063600;28;19993;-64
2021/06/04 10:42:32;;;;;;;;;;;;;;;;;;5065315;28;19929;-64
2021/06/04 10:44:59;;;;;;;;;;;;;;;;;;5063831;28;20109;-64
2021/06/04 10:47:25;;;;;;;;;;;;;;;;;;5062504;28;19928;-64
2021/06/04 10:49:52;;;;;;;;;;;;;;;;;;5065222;28;19925;-64
2021/06/04 10:52:18;;;;;;;;;;;;;;;;;;5064859;28;19932;-64
2021/06/04 10:54:45;;;;;;;;;;;;;;;;;;5062813;28;19933;-64
2021/06/04 10:57:11;;;;;;;;;;;;;;;;;;5062248;28;19932;-64
2021/06/04 10:59:39;;;;;;;;;;;;;;;;;;5062579;28;19931;-66
2021/06/04 11:02:06;;;;;;;;;;;;;;;;;;5065541;28;19924;-65
2021/06/04 11:04:32;;;;;;;;;;;;;;;;;;5062500;28;19925;-65
2021/06/04 11:06:59;;;;;;;;;;;;;;;;;;5065215;28;20078;-65
2021/06/04 11:09:25;;;;;;;;;;;;;;;;;;5068813;28;19929;-65
2021/06/04 11:11:52;;;;;;;;;;;;;;;;;;5064186;28;19925;-66
2021/06/04 11:14:19;;;;;;;;;;;;;;;;;;5063774;28;19928;-66
2021/06/04 11:16:46;;;;;;;;;;;;;;;;;;5063626;28;19925;-65
2021/06/04 11:19:12;;;;;;;;;;;;;;;;;;5067260;28;19925;-65
2021/06/04 11:21:40;;;;;;;;;;;;;;;;;;5064796;28;20414;-65
2021/06/04 11:24:09;;;;;;;;;;;;;;;;;;5062316;28;19924;-65
2021/06/04 11:26:36;;;;;;;;;;;;;;;;;;5063114;28;20342;-66
2021/06/04 11:29:03;;;;;;;;;;;;;;;;;;5063838;28;20289;-65
2021/06/04 11:31:29;;;;;;;;;;;;;;;;;;5065732;28;19931;-65
2021/06/04 11:33:56;;;;;;;;;;;;;;;;;;5066757;28;20451;-65
2021/06/04 11:36:22;;;;;;;;;;;;;;;;;;5063638;28;19928;-64
2021/06/04 11:38:49;;;;;;;;;;;;;;;;;;5062915;28;19980;-65
2021/06/04 11:41:15;;;;;;;;;;;;;;;;;;5066541;28;19929;-65
2021/06/04 11:43:42;;;;;;;;;;;;;;;;;;5065845;28;20404;-64
2021/06/04 11:46:08;;;;;;;;;;;;;;;;;;5062176;28;20019;-64
2021/06/04 11:48:35;;;;;;;;;;;;;;;;;;5064009;28;20384;-65
2021/06/04 11:51:01;;;;;;;;;;;;;;;;;;5063158;28;19931;-64
2021/06/04 11:53:28;;;;;;;;;;;;;;;;;;5063385;28;19964;-65
2021/06/04 11:55:54;;;;;;;;;;;;;;;;;;5062746;28;20376;-65
2021/06/04 11:58:21;;;;;;;;;;;;;;;;;;5062504;28;20312;-64
2021/06/04 12:00:47;;;;;;;;;;;;;;;;;;5065152;28;19924;-65
2021/06/04 12:03:16;;;;;;;;;;;;;;;;;;5063859;28;19931;-65
2021/06/04 12:05:43;;;;;;;;;;;;;;;;;;5064379;28;20375;-65
2021/06/04 12:08:10;;;;;;;;;;;;;;;;;;5060909;28;19925;-64
2021/06/04 12:10:36;;;;;;;;;;;;;;;;;;5064148;28;20054;-64
2021/06/04 12:13:03;;;;;;;;;;;;;;;;;;5065030;28;20048;-66
2021/06/04 12:15:29;;;;;;;;;;;;;;;;;;5063487;28;20006;-71
2021/06/04 12:17:58;;;;;;;;;;;;;;;;;;5062924;28;19925;-65
2021/06/04 12:20:24;;;;;;;;;;;;;;;;;;5068997;28;19948;-65
2021/06/04 12:22:51;;;;;;;;;;;;;;;;;;5074683;28;19992;-65
2021/06/04 12:25:17;;;;;;;;;;;;;;;;;;5071031;28;20011;-65
2021/06/04 12:27:43;;;;;;;;;;;;;;;;;;5065394;28;19982;-65
2021/06/04 12:30:10;;;;;;;;;;;;;;;;;;5064553;28;19973;-65
2021/06/04 12:32:36;;;;;;;;;;;;;;;;;;5062741;28;19927;-65
2021/06/04 12:35:03;;;;;;;;;;;;;;;;;;5062616;28;19931;-65
2021/06/04 12:37:30;;;;;;;;;;;;;;;;;;5062377;28;19925;-66
2021/06/04 12:39:58;;;;;;;;;;;;;;;;;;5063143;28;20065;-66
2021/06/04 12:42:25;;;;;;;;;;;;;;;;;;5062758;28;19928;-66
2021/06/04 12:44:51;;;;;;;;;;;;;;;;;;5064636;28;19931;-66
2021/06/04 12:47:18;;;;;;;;;;;;;;;;;;5063515;28;20018;-65
2021/06/04 12:49:44;;;;;;;;;;;;;;;;;;5069106;28;20298;-66
2021/06/04 12:52:11;;;;;;;;;;;;;;;;;;5066063;28;20007;-66
2021/06/04 12:54:37;;;;;;;;;;;;;;;;;;5065006;28;19925;-65
2021/06/04 12:57:04;;;;;;;;;;;;;;;;;;5060420;28;20296;-66
2021/06/04 12:59:30;;;;;;;;;;;;;;;;;;5061802;28;19972;-66
2021/06/04 13:01:57;;;;;;;;;;;;;;;;;;5063250;28;19931;-67
2021/06/04 13:04:24;;;;;;;;;;;;;;;;;;5063314;28;19925;-66
2021/06/04 13:06:51;;;;;;;;;;;;;;;;;;5066360;28;19925;-66
2021/06/04 13:09:18;;;;;;;;;;;;;;;;;;5063977;28;19991;-66
2021/06/04 13:11:44;;;;;;;;;;;;;;;;;;5062496;28;19933;-65
2021/06/04 13:14:11;;;;;;;;;;;;;;;;;;5063357;28;20402;-67
2021/06/04 13:16:37;;;;;;;;;;;;;;;;;;5062953;28;19924;-65
2021/06/04 13:19:04;;;;;;;;;;;;;;;;;;5060401;28;20294;-67
2021/06/04 13:21:30;;;;;;;;;;;;;;;;;;5060660;28;19931;-66
2021/06/04 13:23:59;;;;;;;;;;;;;;;;;;5060769;28;19928;-66
2021/06/04 13:26:26;;;;;;;;;;;;;;;;;;5065225;28;19967;-66
2021/06/04 13:28:52;;;;;;;;;;;;;;;;;;5066853;28;20453;-72
2021/06/04 13:31:19;;;;;;;;;;;;;;;;;;5054363;28;20277;-66
2021/06/04 13:33:45;;;;;;;;;;;;;;;;;;5052985;28;19925;-67
2021/06/04 13:36:14;;;;;;;;;;;;;;;;;;5052961;28;19925;-66
2021/06/04 13:38:43;;;;;;;;;;;;;;;;;;5052149;28;20305;-65
2021/06/04 13:41:10;;;;;;;;;;;;;;;;;;5063510;28;19979;-65
2021/06/04 13:43:36;;;;;;;;;;;;;;;;;;5057148;28;19929;-65
2021/06/04 13:46:03;;;;;;;;;;;;;;;;;;5057524;28;20295;-65
2021/06/04 13:48:29;;;;;;;;;;;;;;;;;;5054534;28;19925;-64
2021/06/04 13:51:03;;;;;;;;;;;;;;;;;;5055209;28;19946;-65
2021/06/04 13:53:29;;;;;;;;;;;;;;;;;;5059516;28;19925;-65
2021/06/04 13:55:56;;;;;;;;;;;;;;;;;;5056579;28;19935;-64
2021/06/04 13:58:22;;;;;;;;;;;;;;;;;;5058671;28;19971;-68
2021/06/04 14:00:49;;;;;;;;;;;;;;;;;;5063072;28;19939;-65
2021/06/04 14:03:16;;;;;;;;;;;;;;;;;;5062603;28;20339;-67
2021/06/04 14:05:42;;;;;;;;;;;;;;;;;;5060486;28;19931;-67
2021/06/04 14:08:09;;;;;;;;;;;;;;;;;;5065151;28;19971;-67
2021/06/04 14:10:35;;;;;;;;;;;;;;;;;;5060364;28;20446;-66
2021/06/04 14:13:01;;;;;;;;;;;;;;;;;;5060315;28;20027;-67
2021/06/04 14:15:28;;;;;;;;;;;;;;;;;;5061095;28;20000;-67
2021/06/04 14:17:54;;;;;;;;;;;;;;;;;;5060141;28;19972;-67
2021/06/04 14:20:21;;;;;;;;;;;;;;;;;;5059055;28;20427;-67
2021/06/04 14:22:48;;;;;;;;;;;;;;;;;;5057747;28;19951;-67
2021/06/04 14:25:14;;;;;;;;;;;;;;;;;;5056786;28;19929;-67
2021/06/04 14:27:41;;;;;;;;;;;;;;;;;;5063855;28;19981;-67
2021/06/04 14:30:07;;;;;;;;;;;;;;;;;;5060162;28;20385;-67
2021/06/04 14:32:34;;;;;;;;;;;;;;;;;;5060595;28;20027;-68
2021/06/04 14:35:00;;;;;;;;;;;;;;;;;;5060901;28;19924;-67
2021/06/04 14:37:27;;;;;;;;;;;;;;;;;;5060719;28;19932;-66
2021/06/04 14:39:53;;;;;;;;;;;;;;;;;;5060086;28;19933;-67
2021/06/04 14:42:20;;;;;;;;;;;;;;;;;;5064753;28;19933;-67
2021/06/04 14:44:46;;;;;;;;;;;;;;;;;;5063862;28;20007;-64
2021/06/04 14:47:13;;;;;;;;;;;;;;;;;;5063096;28;19947;-66
2021/06/04 14:49:40;;;;;;;;;;;;;;;;;;5060140;28;20072;-66
2021/06/04 14:52:06;;;;;;;;;;;;;;;;;;5061487;28;19980;-66
2021/06/04 14:54:33;;;;;;;;;;;;;;;;;;5060195;28;20380;-66
2021/06/04 14:56:59;;;;;;;;;;;;;;;;;;5062979;28;20027;-66
2021/06/04 14:59:27;;;;;;;;;;;;;;;;;;5058099;28;20411;-66
2021/06/04 15:01:53;;;;;;;;;;;;;;;;;;5062015;28;20015;-64
2021/06/04 15:04:20;;;;;;;;;;;;;;;;;;5062892;28;19960;-67
2021/06/04 15:06:46;;;;;;;;;;;;;;;;;;5060322;28;19935;-64
2021/06/04 15:09:13;;;;;;;;;;;;;;;;;;5064737;28;19924;-64
2021/06/04 15:11:40;;;;;;;;;;;;;;;;;;5063600;28;20007;-65
2021/06/04 15:14:07;;;;;;;;;;;;;;;;;;5056583;28;19925;-67
2021/06/04 15:16:33;;;;;;;;;;;;;;;;;;5061069;28;20427;-67
2021/06/04 15:19:00;;;;;;;;;;;;;;;;;;5062753;28;19959;-67
2021/06/04 15:21:26;;;;;;;;;;;;;;;;;;5067186;28;19970;-67
2021/06/04 15:23:53;;;;;;;;;;;;;;;;;;5064309;28;20414;-66
2021/06/04 15:26:19;;;;;;;;;;;;;;;;;;5065852;28;19924;-66
2021/06/04 15:28:46;;;;;;;;;;;;;;;;;;5065385;28;19931;-66
2021/06/04 15:31:13;;;;;;;;;;;;;;;;;;5065775;28;19925;-67
2021/06/04 15:33:39;;;;;;;;;;;;;;;;;;5065287;28;19924;-66
2021/06/04 15:36:06;;;;;;;;;;;;;;;;;;5067485;28;19925;-67
2021/06/04 15:38:32;;;;;;;;;;;;;;;;;;5066009;28;19986;-66
2021/06/04 15:40:59;;;;;;;;;;;;;;;;;;5063893;28;20300;-66
2021/06/04 15:43:25;;;;;;;;;;;;;;;;;;5065044;28;20312;-66
2021/06/04 15:45:52;;;;;;;;;;;;;;;;;;5066275;28;20543;-66
2021/06/04 15:48:18;;;;;;;;;;;;;;;;;;5067839;28;20341;-66
2021/06/04 15:50:45;;;;;;;;;;;;;;;;;;5065556;28;19929;-65
2021/06/04 15:53:11;;;;;;;;;;;;;;;;;;5064870;28;20377;-66
2021/06/04 15:55:38;;;;;;;;;;;;;;;;;;5059624;28;19924;-66
2021/06/04 15:58:05;;;;;;;;;;;;;;;;;;5068156;28;19985;-66
2021/06/04 16:00:31;;;;;;;;;;;;;;;;;;5059809;28;19931;-66
2021/06/04 16:02:58;;;;;;;;;;;;;;;;;;5068910;28;20027;-66
2021/06/04 16:05:24;;;;;;;;;;;;;;;;;;5061488;28;19929;-68
2021/06/04 16:07:51;;;;;;;;;;;;;;;;;;5063391;28;19925;-65
2021/06/04 16:10:18;;;;;;;;;;;;;;;;;;5067033;28;20331;-65
2021/06/04 16:12:44;;;;;;;;;;;;;;;;;;5064339;28;19931;-65
2021/06/04 16:15:10;;;;;;;;;;;;;;;;;;5062661;28;20341;-65
2021/06/04 16:17:39;;;;;;;;;;;;;;;;;;5062722;28;19925;-65
2021/06/04 16:20:05;;;;;;;;;;;;;;;;;;5061885;28;20325;-65
2021/06/04 16:22:32;;;;;;;;;;;;;;;;;;5062803;28;19924;-65
2021/06/04 16:24:58;;;;;;;;;;;;;;;;;;5063302;28;19924;-64
2021/06/04 16:27:25;;;;;;;;;;;;;;;;;;5066675;28;19932;-64
2021/06/04 16:29:51;;;;;;;;;;;;;;;;;;5062208;28;19925;-64
2021/06/04 16:32:18;;;;;;;;;;;;;;;;;;5061557;28;20038;-64
2021/06/04 16:34:45;;;;;;;;;;;;;;;;;;5064465;28;20015;-65
2021/06/04 16:37:12;;;;;;;;;;;;;;;;;;5064012;28;20324;-65
2021/06/04 16:39:40;;;;;;;;;;;;;;;;;;5061139;28;19994;-66
2021/06/04 16:42:07;;;;;;;;;;;;;;;;;;5063234;28;20308;-66
2021/06/04 16:44:33;;;;;;;;;;;;;;;;;;5065315;28;20013;-65